sensor_id;sensor_type;location;lat;lon;timestamp;P1;durP1;ratioP1;P2;durP2;ratioP2
47383;SDS011;33129;52.232;5.192;2022-07-23T00:01:33;13.67;;;7.57;;
47383;SDS011;33129;52.232;5.192;2022-07-23T00:03:59;10.93;;;6.30;;
47383;SDS011;33129;52.232;5.192;2022-07-23T00:06:25;11.03;;;6.13;;
47383;SDS011;33129;52.232;5.192;2022-07-23T00:08:51;5.60;;;2.57;;
47383;SDS011;33129;52.232;5.192;2022-07-23T00:11:17;6.57;;;2.47;;
47383;SDS011;33129;52.232;5.192;2022-07-23T00:13:43;6.07;;;2.30;;
47383;SDS011;33129;52.232;5.192;2022-07-23T00:16:09;4.77;;;3.00;;
47383;SDS011;33129;52.232;5.192;2022-07-23T00:18:35;4.47;;;2.20;;
47383;SDS011;33129;52.232;5.192;2022-07-23T00:21:01;5.17;;;2.40;;
47383;SDS011;33129;52.232;5.192;2022-07-23T00:23:27;6.63;;;2.87;;
47383;SDS011;33129;52.232;5.192;2022-07-23T00:25:54;5.37;;;2.23;;
47383;SDS011;33129;52.232;5.192;2022-07-23T00:28:20;4.70;;;2.60;;
47383;SDS011;33129;52.232;5.192;2022-07-23T00:30:46;5.33;;;2.50;;
47383;SDS011;33129;52.232;5.192;2022-07-23T00:33:12;5.60;;;2.23;;
47383;SDS011;33129;52.232;5.192;2022-07-23T00:35:38;5.90;;;2.60;;
47383;SDS011;33129;52.232;5.192;2022-07-23T00:38:05;5.50;;;2.83;;
47383;SDS011;33129;52.232;5.192;2022-07-23T00:40:34;7.60;;;2.90;;
47383;SDS011;33129;52.232;5.192;2022-07-23T00:43:00;5.80;;;2.90;;
47383;SDS011;33129;52.232;5.192;2022-07-23T00:45:26;5.23;;;2.60;;
47383;SDS011;33129;52.232;5.192;2022-07-23T00:47:52;5.10;;;2.60;;
47383;SDS011;33129;52.232;5.192;2022-07-23T00:50:18;5.63;;;2.30;;
47383;SDS011;33129;52.232;5.192;2022-07-23T00:52:44;6.03;;;2.40;;
47383;SDS011;33129;52.232;5.192;2022-07-23T00:55:11;5.10;;;2.47;;
47383;SDS011;33129;52.232;5.192;2022-07-23T00:57:37;5.30;;;2.57;;
47383;SDS011;33129;52.232;5.192;2022-07-23T01:00:05;6.73;;;2.80;;
47383;SDS011;33129;52.232;5.192;2022-07-23T01:02:34;6.03;;;2.93;;
47383;SDS011;33129;52.232;5.192;2022-07-23T01:05:00;5.23;;;2.30;;
47383;SDS011;33129;52.232;5.192;2022-07-23T01:07:26;5.63;;;2.70;;
47383;SDS011;33129;52.232;5.192;2022-07-23T01:09:52;4.40;;;2.37;;
47383;SDS011;33129;52.232;5.192;2022-07-23T01:12:18;4.80;;;2.60;;
47383;SDS011;33129;52.232;5.192;2022-07-23T01:14:44;5.60;;;2.70;;
47383;SDS011;33129;52.232;5.192;2022-07-23T01:17:10;5.07;;;2.67;;
47383;SDS011;33129;52.232;5.192;2022-07-23T01:19:35;5.43;;;2.50;;
47383;SDS011;33129;52.232;5.192;2022-07-23T01:22:01;4.60;;;2.50;;
47383;SDS011;33129;52.232;5.192;2022-07-23T01:24:28;5.67;;;2.60;;
47383;SDS011;33129;52.232;5.192;2022-07-23T01:26:55;5.77;;;2.50;;
47383;SDS011;33129;52.232;5.192;2022-07-23T01:29:21;4.03;;;2.50;;
47383;SDS011;33129;52.232;5.192;2022-07-23T01:31:46;6.17;;;2.57;;
47383;SDS011;33129;52.232;5.192;2022-07-23T01:34:13;4.50;;;2.43;;
47383;SDS011;33129;52.232;5.192;2022-07-23T01:36:39;6.67;;;2.27;;
47383;SDS011;33129;52.232;5.192;2022-07-23T01:39:06;6.03;;;2.60;;
47383;SDS011;33129;52.232;5.192;2022-07-23T01:41:32;5.20;;;2.60;;
47383;SDS011;33129;52.232;5.192;2022-07-23T01:43:59;5.30;;;2.90;;
47383;SDS011;33129;52.232;5.192;2022-07-23T01:46:25;5.50;;;2.50;;
47383;SDS011;33129;52.232;5.192;2022-07-23T01:48:51;6.50;;;2.80;;
47383;SDS011;33129;52.232;5.192;2022-07-23T01:51:17;4.00;;;2.17;;
47383;SDS011;33129;52.232;5.192;2022-07-23T01:53:42;6.07;;;2.40;;
47383;SDS011;33129;52.232;5.192;2022-07-23T01:56:08;5.53;;;2.67;;
47383;SDS011;33129;52.232;5.192;2022-07-23T01:58:34;5.43;;;2.50;;
47383;SDS011;33129;52.232;5.192;2022-07-23T02:00:59;5.30;;;2.60;;
47383;SDS011;33129;52.232;5.192;2022-07-23T02:03:25;5.50;;;2.57;;
47383;SDS011;33129;52.232;5.192;2022-07-23T02:05:51;5.23;;;2.50;;
47383;SDS011;33129;52.232;5.192;2022-07-23T02:08:17;5.33;;;2.70;;
47383;SDS011;33129;52.232;5.192;2022-07-23T02:10:43;5.17;;;2.83;;
47383;SDS011;33129;52.232;5.192;2022-07-23T02:13:10;6.50;;;2.83;;
47383;SDS011;33129;52.232;5.192;2022-07-23T02:15:36;5.60;;;3.07;;
47383;SDS011;33129;52.232;5.192;2022-07-23T02:18:02;4.90;;;2.70;;
47383;SDS011;33129;52.232;5.192;2022-07-23T02:20:28;4.77;;;2.47;;
47383;SDS011;33129;52.232;5.192;2022-07-23T02:22:54;5.93;;;2.30;;
47383;SDS011;33129;52.232;5.192;2022-07-23T02:25:19;6.23;;;2.33;;
47383;SDS011;33129;52.232;5.192;2022-07-23T02:27:45;6.07;;;2.33;;
47383;SDS011;33129;52.232;5.192;2022-07-23T02:30:11;7.43;;;2.77;;
47383;SDS011;33129;52.232;5.192;2022-07-23T02:32:37;3.83;;;2.20;;
47383;SDS011;33129;52.232;5.192;2022-07-23T02:35:04;4.20;;;1.90;;
47383;SDS011;33129;52.232;5.192;2022-07-23T02:37:31;3.80;;;2.10;;
47383;SDS011;33129;52.232;5.192;2022-07-23T02:39:57;4.53;;;2.10;;
47383;SDS011;33129;52.232;5.192;2022-07-23T02:42:23;4.87;;;2.00;;
47383;SDS011;33129;52.232;5.192;2022-07-23T02:44:49;4.73;;;2.40;;
47383;SDS011;33129;52.232;5.192;2022-07-23T02:47:16;5.87;;;2.70;;
47383;SDS011;33129;52.232;5.192;2022-07-23T02:49:42;5.10;;;2.20;;
47383;SDS011;33129;52.232;5.192;2022-07-23T02:52:07;5.13;;;2.37;;
47383;SDS011;33129;52.232;5.192;2022-07-23T02:54:35;4.13;;;2.27;;
47383;SDS011;33129;52.232;5.192;2022-07-23T02:57:01;4.57;;;2.40;;
47383;SDS011;33129;52.232;5.192;2022-07-23T02:59:28;4.37;;;2.27;;
47383;SDS011;33129;52.232;5.192;2022-07-23T03:01:54;4.87;;;2.70;;
47383;SDS011;33129;52.232;5.192;2022-07-23T03:04:20;5.20;;;2.53;;
47383;SDS011;33129;52.232;5.192;2022-07-23T03:06:45;4.30;;;2.27;;
47383;SDS011;33129;52.232;5.192;2022-07-23T03:09:11;5.87;;;2.57;;
47383;SDS011;33129;52.232;5.192;2022-07-23T03:11:37;3.83;;;2.10;;
47383;SDS011;33129;52.232;5.192;2022-07-23T03:14:02;5.53;;;3.00;;
47383;SDS011;33129;52.232;5.192;2022-07-23T03:16:28;6.33;;;3.40;;
47383;SDS011;33129;52.232;5.192;2022-07-23T03:18:54;6.50;;;3.00;;
47383;SDS011;33129;52.232;5.192;2022-07-23T03:21:20;4.00;;;2.27;;
47383;SDS011;33129;52.232;5.192;2022-07-23T03:23:45;4.63;;;2.30;;
47383;SDS011;33129;52.232;5.192;2022-07-23T03:26:11;4.40;;;2.53;;
47383;SDS011;33129;52.232;5.192;2022-07-23T03:28:37;5.97;;;2.40;;
47383;SDS011;33129;52.232;5.192;2022-07-23T03:31:02;5.17;;;2.53;;
47383;SDS011;33129;52.232;5.192;2022-07-23T03:33:28;5.30;;;2.30;;
47383;SDS011;33129;52.232;5.192;2022-07-23T03:35:54;4.33;;;2.40;;
47383;SDS011;33129;52.232;5.192;2022-07-23T03:38:19;6.60;;;2.63;;
47383;SDS011;33129;52.232;5.192;2022-07-23T03:40:45;4.87;;;2.30;;
47383;SDS011;33129;52.232;5.192;2022-07-23T03:43:11;5.73;;;2.87;;
47383;SDS011;33129;52.232;5.192;2022-07-23T03:45:37;5.17;;;2.20;;
47383;SDS011;33129;52.232;5.192;2022-07-23T03:48:02;4.73;;;2.17;;
47383;SDS011;33129;52.232;5.192;2022-07-23T03:50:28;4.53;;;2.23;;
47383;SDS011;33129;52.232;5.192;2022-07-23T03:52:54;3.73;;;2.20;;
47383;SDS011;33129;52.232;5.192;2022-07-23T03:55:19;4.10;;;2.40;;
47383;SDS011;33129;52.232;5.192;2022-07-23T03:57:45;5.93;;;1.97;;
47383;SDS011;33129;52.232;5.192;2022-07-23T04:00:11;4.73;;;2.20;;
47383;SDS011;33129;52.232;5.192;2022-07-23T04:02:38;3.97;;;2.23;;
47383;SDS011;33129;52.232;5.192;2022-07-23T04:05:05;5.57;;;2.30;;
47383;SDS011;33129;52.232;5.192;2022-07-23T04:07:32;4.40;;;2.30;;
47383;SDS011;33129;52.232;5.192;2022-07-23T04:09:57;5.00;;;2.23;;
47383;SDS011;33129;52.232;5.192;2022-07-23T04:12:23;3.67;;;2.13;;
47383;SDS011;33129;52.232;5.192;2022-07-23T04:14:49;4.07;;;2.07;;
47383;SDS011;33129;52.232;5.192;2022-07-23T04:17:15;4.53;;;2.27;;
47383;SDS011;33129;52.232;5.192;2022-07-23T04:19:41;4.77;;;2.37;;
47383;SDS011;33129;52.232;5.192;2022-07-23T04:22:08;3.50;;;2.10;;
47383;SDS011;33129;52.232;5.192;2022-07-23T04:24:38;4.00;;;2.60;;
47383;SDS011;33129;52.232;5.192;2022-07-23T04:27:04;4.40;;;2.40;;
47383;SDS011;33129;52.232;5.192;2022-07-23T04:29:30;5.50;;;2.40;;
47383;SDS011;33129;52.232;5.192;2022-07-23T04:31:56;5.47;;;2.43;;
47383;SDS011;33129;52.232;5.192;2022-07-23T04:34:21;4.27;;;2.30;;
47383;SDS011;33129;52.232;5.192;2022-07-23T04:36:47;4.80;;;2.60;;
47383;SDS011;33129;52.232;5.192;2022-07-23T04:39:13;4.20;;;2.30;;
47383;SDS011;33129;52.232;5.192;2022-07-23T04:41:39;6.23;;;2.40;;
47383;SDS011;33129;52.232;5.192;2022-07-23T04:44:06;4.03;;;2.47;;
47383;SDS011;33129;52.232;5.192;2022-07-23T04:46:31;6.90;;;2.90;;
47383;SDS011;33129;52.232;5.192;2022-07-23T04:48:57;5.83;;;2.50;;
47383;SDS011;33129;52.232;5.192;2022-07-23T04:51:23;6.37;;;2.80;;
47383;SDS011;33129;52.232;5.192;2022-07-23T04:53:49;4.80;;;2.70;;
47383;SDS011;33129;52.232;5.192;2022-07-23T04:56:15;7.27;;;3.27;;
47383;SDS011;33129;52.232;5.192;2022-07-23T04:58:41;5.97;;;2.43;;
47383;SDS011;33129;52.232;5.192;2022-07-23T05:01:07;4.50;;;2.77;;
47383;SDS011;33129;52.232;5.192;2022-07-23T05:03:32;4.80;;;2.67;;
47383;SDS011;33129;52.232;5.192;2022-07-23T05:05:58;5.13;;;2.80;;
47383;SDS011;33129;52.232;5.192;2022-07-23T05:08:24;5.70;;;2.40;;
47383;SDS011;33129;52.232;5.192;2022-07-23T05:10:50;4.20;;;2.43;;
47383;SDS011;33129;52.232;5.192;2022-07-23T05:13:15;4.57;;;2.67;;
47383;SDS011;33129;52.232;5.192;2022-07-23T05:15:42;4.43;;;2.50;;
47383;SDS011;33129;52.232;5.192;2022-07-23T05:18:08;5.93;;;2.70;;
47383;SDS011;33129;52.232;5.192;2022-07-23T05:20:34;6.37;;;2.77;;
47383;SDS011;33129;52.232;5.192;2022-07-23T05:23:00;6.17;;;3.07;;
47383;SDS011;33129;52.232;5.192;2022-07-23T05:25:26;6.50;;;2.43;;
47383;SDS011;33129;52.232;5.192;2022-07-23T05:27:51;3.60;;;2.17;;
47383;SDS011;33129;52.232;5.192;2022-07-23T05:30:17;3.97;;;2.10;;
47383;SDS011;33129;52.232;5.192;2022-07-23T05:32:43;4.20;;;2.00;;
47383;SDS011;33129;52.232;5.192;2022-07-23T05:35:09;4.00;;;1.80;;
47383;SDS011;33129;52.232;5.192;2022-07-23T05:37:35;6.17;;;2.00;;
47383;SDS011;33129;52.232;5.192;2022-07-23T05:40:04;4.47;;;2.00;;
47383;SDS011;33129;52.232;5.192;2022-07-23T05:42:36;5.40;;;1.90;;
47383;SDS011;33129;52.232;5.192;2022-07-23T05:45:03;4.67;;;2.27;;
47383;SDS011;33129;52.232;5.192;2022-07-23T05:47:44;6.53;;;1.93;;
47383;SDS011;33129;52.232;5.192;2022-07-23T05:50:12;7.17;;;2.10;;
47383;SDS011;33129;52.232;5.192;2022-07-23T05:52:39;5.63;;;2.13;;
47383;SDS011;33129;52.232;5.192;2022-07-23T05:55:06;6.00;;;2.07;;
47383;SDS011;33129;52.232;5.192;2022-07-23T05:57:33;4.97;;;2.13;;
47383;SDS011;33129;52.232;5.192;2022-07-23T05:59:59;6.20;;;1.80;;
47383;SDS011;33129;52.232;5.192;2022-07-23T06:02:25;4.03;;;1.87;;
47383;SDS011;33129;52.232;5.192;2022-07-23T06:04:50;4.70;;;1.87;;
47383;SDS011;33129;52.232;5.192;2022-07-23T06:07:16;5.17;;;1.83;;
47383;SDS011;33129;52.232;5.192;2022-07-23T06:09:42;4.13;;;1.50;;
47383;SDS011;33129;52.232;5.192;2022-07-23T06:12:08;4.00;;;1.50;;
47383;SDS011;33129;52.232;5.192;2022-07-23T06:14:33;4.63;;;1.83;;
47383;SDS011;33129;52.232;5.192;2022-07-23T06:16:59;3.33;;;1.50;;
47383;SDS011;33129;52.232;5.192;2022-07-23T06:19:25;4.73;;;1.40;;
47383;SDS011;33129;52.232;5.192;2022-07-23T06:21:51;3.77;;;1.43;;
47383;SDS011;33129;52.232;5.192;2022-07-23T06:24:16;3.80;;;1.73;;
47383;SDS011;33129;52.232;5.192;2022-07-23T06:26:42;3.80;;;1.40;;
47383;SDS011;33129;52.232;5.192;2022-07-23T06:29:08;6.23;;;1.40;;
47383;SDS011;33129;52.232;5.192;2022-07-23T06:31:34;4.13;;;1.20;;
47383;SDS011;33129;52.232;5.192;2022-07-23T06:33:59;3.97;;;1.40;;
47383;SDS011;33129;52.232;5.192;2022-07-23T06:36:25;3.63;;;1.27;;
47383;SDS011;33129;52.232;5.192;2022-07-23T06:38:51;6.43;;;1.67;;
47383;SDS011;33129;52.232;5.192;2022-07-23T06:41:17;4.97;;;1.33;;
47383;SDS011;33129;52.232;5.192;2022-07-23T06:43:43;3.33;;;0.80;;
47383;SDS011;33129;52.232;5.192;2022-07-23T06:46:08;2.88;;;1.00;;
47383;SDS011;33129;52.232;5.192;2022-07-23T06:48:34;3.25;;;1.02;;
47383;SDS011;33129;52.232;5.192;2022-07-23T06:51:00;4.10;;;1.17;;
47383;SDS011;33129;52.232;5.192;2022-07-23T06:53:27;4.43;;;1.10;;
47383;SDS011;33129;52.232;5.192;2022-07-23T06:55:53;2.30;;;0.90;;
47383;SDS011;33129;52.232;5.192;2022-07-23T06:58:19;3.70;;;1.10;;
47383;SDS011;33129;52.232;5.192;2022-07-23T07:00:45;3.03;;;1.00;;
47383;SDS011;33129;52.232;5.192;2022-07-23T07:03:11;2.88;;;0.90;;
47383;SDS011;33129;52.232;5.192;2022-07-23T07:05:37;3.03;;;0.93;;
47383;SDS011;33129;52.232;5.192;2022-07-23T07:08:04;4.25;;;1.00;;
47383;SDS011;33129;52.232;5.192;2022-07-23T07:10:30;2.63;;;0.88;;
47383;SDS011;33129;52.232;5.192;2022-07-23T07:12:57;2.90;;;1.15;;
47383;SDS011;33129;52.232;5.192;2022-07-23T07:15:23;1.95;;;0.90;;
47383;SDS011;33129;52.232;5.192;2022-07-23T07:17:48;4.35;;;1.05;;
47383;SDS011;33129;52.232;5.192;2022-07-23T07:20:14;3.95;;;1.00;;
47383;SDS011;33129;52.232;5.192;2022-07-23T07:22:40;3.35;;;1.08;;
47383;SDS011;33129;52.232;5.192;2022-07-23T07:25:06;3.35;;;1.17;;
47383;SDS011;33129;52.232;5.192;2022-07-23T07:27:32;2.63;;;1.00;;
47383;SDS011;33129;52.232;5.192;2022-07-23T07:29:58;3.25;;;0.90;;
47383;SDS011;33129;52.232;5.192;2022-07-23T07:32:24;3.75;;;1.23;;
47383;SDS011;33129;52.232;5.192;2022-07-23T07:34:50;3.47;;;0.90;;
47383;SDS011;33129;52.232;5.192;2022-07-23T07:37:15;3.17;;;0.95;;
47383;SDS011;33129;52.232;5.192;2022-07-23T07:39:42;4.50;;;0.93;;
47383;SDS011;33129;52.232;5.192;2022-07-23T07:42:07;4.40;;;1.10;;
47383;SDS011;33129;52.232;5.192;2022-07-23T07:44:33;4.03;;;0.90;;
47383;SDS011;33129;52.232;5.192;2022-07-23T07:46:59;3.70;;;1.00;;
47383;SDS011;33129;52.232;5.192;2022-07-23T07:49:24;4.40;;;1.00;;
47383;SDS011;33129;52.232;5.192;2022-07-23T07:51:50;4.78;;;1.10;;
47383;SDS011;33129;52.232;5.192;2022-07-23T07:54:16;3.42;;;0.80;;
47383;SDS011;33129;52.232;5.192;2022-07-23T07:56:41;2.63;;;1.00;;
47383;SDS011;33129;52.232;5.192;2022-07-23T07:59:07;5.68;;;0.90;;
47383;SDS011;33129;52.232;5.192;2022-07-23T08:01:33;3.65;;;1.10;;
47383;SDS011;33129;52.232;5.192;2022-07-23T08:03:59;3.10;;;0.88;;
47383;SDS011;33129;52.232;5.192;2022-07-23T08:06:24;3.10;;;0.90;;
47383;SDS011;33129;52.232;5.192;2022-07-23T08:08:50;2.63;;;0.80;;
47383;SDS011;33129;52.232;5.192;2022-07-23T08:11:16;3.70;;;0.80;;
47383;SDS011;33129;52.232;5.192;2022-07-23T08:13:41;2.47;;;0.88;;
47383;SDS011;33129;52.232;5.192;2022-07-23T08:16:09;4.97;;;1.10;;
47383;SDS011;33129;52.232;5.192;2022-07-23T08:18:35;3.22;;;0.75;;
47383;SDS011;33129;52.232;5.192;2022-07-23T08:21:01;4.63;;;1.08;;
47383;SDS011;33129;52.232;5.192;2022-07-23T08:23:29;3.20;;;0.93;;
47383;SDS011;33129;52.232;5.192;2022-07-23T08:25:54;1.88;;;0.70;;
47383;SDS011;33129;52.232;5.192;2022-07-23T08:28:21;3.50;;;1.00;;
47383;SDS011;33129;52.232;5.192;2022-07-23T08:30:47;3.15;;;0.90;;
47383;SDS011;33129;52.232;5.192;2022-07-23T08:33:14;2.63;;;0.95;;
47383;SDS011;33129;52.232;5.192;2022-07-23T08:35:42;2.00;;;0.80;;
47383;SDS011;33129;52.232;5.192;2022-07-23T08:38:14;2.25;;;0.70;;
47383;SDS011;33129;52.232;5.192;2022-07-23T08:40:43;3.38;;;1.15;;
47383;SDS011;33129;52.232;5.192;2022-07-23T08:43:15;3.22;;;1.00;;
47383;SDS011;33129;52.232;5.192;2022-07-23T08:45:53;2.65;;;0.88;;
47383;SDS011;33129;52.232;5.192;2022-07-23T08:48:26;3.40;;;0.85;;
47383;SDS011;33129;52.232;5.192;2022-07-23T08:50:58;2.63;;;0.88;;
47383;SDS011;33129;52.232;5.192;2022-07-23T08:53:27;3.30;;;1.15;;
47383;SDS011;33129;52.232;5.192;2022-07-23T08:55:55;3.40;;;1.10;;
47383;SDS011;33129;52.232;5.192;2022-07-23T08:58:22;2.80;;;0.68;;
47383;SDS011;33129;52.232;5.192;2022-07-23T09:00:50;4.18;;;0.80;;
47383;SDS011;33129;52.232;5.192;2022-07-23T09:03:23;3.08;;;0.70;;
47383;SDS011;33129;52.232;5.192;2022-07-23T09:05:58;2.88;;;1.10;;
47383;SDS011;33129;52.232;5.192;2022-07-23T09:08:33;3.80;;;0.90;;
47383;SDS011;33129;52.232;5.192;2022-07-23T09:11:04;2.28;;;0.70;;
47383;SDS011;33129;52.232;5.192;2022-07-23T09:16:16;3.60;;;0.80;;
47383;SDS011;33129;52.232;5.192;2022-07-23T09:18:55;3.10;;;0.80;;
47383;SDS011;33129;52.232;5.192;2022-07-23T09:21:35;3.20;;;0.80;;
47383;SDS011;33129;52.232;5.192;2022-07-23T09:24:09;2.92;;;0.80;;
47383;SDS011;33129;52.232;5.192;2022-07-23T09:29:23;2.60;;;0.98;;
47383;SDS011;33129;52.232;5.192;2022-07-23T09:31:51;5.05;;;0.98;;
47383;SDS011;33129;52.232;5.192;2022-07-23T09:36:52;3.72;;;0.85;;
47383;SDS011;33129;52.232;5.192;2022-07-23T09:39:30;2.65;;;1.00;;
47383;SDS011;33129;52.232;5.192;2022-07-23T09:41:57;3.42;;;1.00;;
47383;SDS011;33129;52.232;5.192;2022-07-23T09:44:42;1.85;;;0.60;;
47383;SDS011;33129;52.232;5.192;2022-07-23T09:47:13;2.50;;;0.82;;
47383;SDS011;33129;52.232;5.192;2022-07-23T09:49:40;2.83;;;0.93;;
47383;SDS011;33129;52.232;5.192;2022-07-23T09:52:26;2.65;;;1.00;;
47383;SDS011;33129;52.232;5.192;2022-07-23T09:54:59;4.05;;;1.05;;
47383;SDS011;33129;52.232;5.192;2022-07-23T09:57:31;2.67;;;0.90;;
47383;SDS011;33129;52.232;5.192;2022-07-23T09:59:58;2.60;;;0.98;;
47383;SDS011;33129;52.232;5.192;2022-07-23T10:02:29;2.67;;;0.85;;
47383;SDS011;33129;52.232;5.192;2022-07-23T10:05:01;3.47;;;0.90;;
47383;SDS011;33129;52.232;5.192;2022-07-23T10:07:28;2.15;;;0.70;;
47383;SDS011;33129;52.232;5.192;2022-07-23T10:09:59;2.72;;;0.70;;
47383;SDS011;33129;52.232;5.192;2022-07-23T10:12:25;2.53;;;0.70;;
47383;SDS011;33129;52.232;5.192;2022-07-23T10:15:00;2.80;;;0.90;;
47383;SDS011;33129;52.232;5.192;2022-07-23T10:17:30;3.05;;;0.88;;
47383;SDS011;33129;52.232;5.192;2022-07-23T10:19:56;2.80;;;0.95;;
47383;SDS011;33129;52.232;5.192;2022-07-23T10:22:29;3.45;;;1.10;;
47383;SDS011;33129;52.232;5.192;2022-07-23T10:25:06;2.88;;;1.08;;
47383;SDS011;33129;52.232;5.192;2022-07-23T10:31:00;4.30;;;1.02;;
47383;SDS011;33129;52.232;5.192;2022-07-23T10:36:44;2.67;;;0.88;;
47383;SDS011;33129;52.232;5.192;2022-07-23T10:39:41;2.40;;;0.75;;
47383;SDS011;33129;52.232;5.192;2022-07-23T10:42:08;3.75;;;0.88;;
47383;SDS011;33129;52.232;5.192;2022-07-23T10:44:42;2.30;;;0.85;;
47383;SDS011;33129;52.232;5.192;2022-07-23T10:47:11;2.72;;;0.95;;
47383;SDS011;33129;52.232;5.192;2022-07-23T10:49:37;2.40;;;1.00;;
47383;SDS011;33129;52.232;5.192;2022-07-23T10:54:56;4.68;;;1.40;;
47383;SDS011;33129;52.232;5.192;2022-07-23T10:57:50;4.10;;;1.10;;
47383;SDS011;33129;52.232;5.192;2022-07-23T11:00:19;5.05;;;1.27;;
47383;SDS011;33129;52.232;5.192;2022-07-23T11:02:49;3.97;;;1.58;;
47383;SDS011;33129;52.232;5.192;2022-07-23T11:05:19;2.38;;;0.80;;
47383;SDS011;33129;52.232;5.192;2022-07-23T11:16:04;3.00;;;1.10;;
47383;SDS011;33129;52.232;5.192;2022-07-23T11:26:48;3.85;;;1.35;;
47383;SDS011;33129;52.232;5.192;2022-07-23T11:34:40;3.45;;;1.08;;
47383;SDS011;33129;52.232;5.192;2022-07-23T11:37:09;3.47;;;1.30;;
47383;SDS011;33129;52.232;5.192;2022-07-23T11:39:56;3.78;;;1.27;;
47383;SDS011;33129;52.232;5.192;2022-07-23T11:42:23;3.55;;;1.15;;
47383;SDS011;33129;52.232;5.192;2022-07-23T11:44:49;3.95;;;1.90;;
47383;SDS011;33129;52.232;5.192;2022-07-23T11:47:20;3.88;;;1.10;;
47383;SDS011;33129;52.232;5.192;2022-07-23T11:49:54;2.88;;;1.20;;
47383;SDS011;33129;52.232;5.192;2022-07-23T11:52:24;2.17;;;0.82;;
47383;SDS011;33129;52.232;5.192;2022-07-23T11:54:53;2.47;;;1.00;;
47383;SDS011;33129;52.232;5.192;2022-07-23T11:57:20;3.90;;;1.33;;
47383;SDS011;33129;52.232;5.192;2022-07-23T11:59:56;2.85;;;1.20;;
47383;SDS011;33129;52.232;5.192;2022-07-23T12:02:27;4.55;;;1.23;;
47383;SDS011;33129;52.232;5.192;2022-07-23T12:04:53;3.42;;;1.00;;
47383;SDS011;33129;52.232;5.192;2022-07-23T12:07:27;4.15;;;1.40;;
47383;SDS011;33129;52.232;5.192;2022-07-23T12:09:57;5.85;;;1.58;;
47383;SDS011;33129;52.232;5.192;2022-07-23T12:12:25;4.05;;;1.13;;
47383;SDS011;33129;52.232;5.192;2022-07-23T12:14:56;2.63;;;1.17;;
47383;SDS011;33129;52.232;5.192;2022-07-23T12:17:27;4.25;;;1.77;;
47383;SDS011;33129;52.232;5.192;2022-07-23T12:19:59;5.47;;;1.15;;
47383;SDS011;33129;52.232;5.192;2022-07-23T12:25:10;3.70;;;1.33;;
47383;SDS011;33129;52.232;5.192;2022-07-23T12:27:42;3.33;;;1.42;;
47383;SDS011;33129;52.232;5.192;2022-07-23T12:30:19;3.58;;;1.60;;
47383;SDS011;33129;52.232;5.192;2022-07-23T12:33:03;5.18;;;1.30;;
47383;SDS011;33129;52.232;5.192;2022-07-23T12:35:35;3.38;;;1.30;;
47383;SDS011;33129;52.232;5.192;2022-07-23T12:38:07;3.90;;;1.33;;
47383;SDS011;33129;52.232;5.192;2022-07-23T12:40:40;4.55;;;1.50;;
47383;SDS011;33129;52.232;5.192;2022-07-23T12:43:11;4.10;;;1.17;;
47383;SDS011;33129;52.232;5.192;2022-07-23T12:45:51;4.45;;;1.20;;
47383;SDS011;33129;52.232;5.192;2022-07-23T12:48:31;2.92;;;1.10;;
47383;SDS011;33129;52.232;5.192;2022-07-23T12:53:30;3.75;;;1.77;;
47383;SDS011;33129;52.232;5.192;2022-07-23T12:58:49;2.72;;;1.42;;
47383;SDS011;33129;52.232;5.192;2022-07-23T13:04:00;4.22;;;1.60;;
47383;SDS011;33129;52.232;5.192;2022-07-23T13:06:30;2.72;;;1.20;;
47383;SDS011;33129;52.232;5.192;2022-07-23T13:08:59;3.50;;;1.40;;
47383;SDS011;33129;52.232;5.192;2022-07-23T13:11:27;3.95;;;1.70;;
47383;SDS011;33129;52.232;5.192;2022-07-23T13:13:52;4.90;;;1.73;;
47383;SDS011;33129;52.232;5.192;2022-07-23T13:16:18;3.38;;;1.40;;
47383;SDS011;33129;52.232;5.192;2022-07-23T13:18:44;3.75;;;1.30;;
47383;SDS011;33129;52.232;5.192;2022-07-23T13:21:10;3.88;;;1.40;;
47383;SDS011;33129;52.232;5.192;2022-07-23T13:23:36;2.58;;;1.30;;
47383;SDS011;33129;52.232;5.192;2022-07-23T13:26:02;4.60;;;1.63;;
47383;SDS011;33129;52.232;5.192;2022-07-23T13:28:28;3.60;;;1.60;;
47383;SDS011;33129;52.232;5.192;2022-07-23T13:30:54;3.33;;;1.35;;
47383;SDS011;33129;52.232;5.192;2022-07-23T13:33:21;2.88;;;1.30;;
47383;SDS011;33129;52.232;5.192;2022-07-23T13:35:49;4.03;;;2.10;;
47383;SDS011;33129;52.232;5.192;2022-07-23T13:38:17;4.55;;;1.60;;
47383;SDS011;33129;52.232;5.192;2022-07-23T13:40:45;5.13;;;1.90;;
47383;SDS011;33129;52.232;5.192;2022-07-23T13:43:14;3.85;;;1.90;;
47383;SDS011;33129;52.232;5.192;2022-07-23T13:45:43;3.88;;;2.05;;
47383;SDS011;33129;52.232;5.192;2022-07-23T13:48:10;4.05;;;1.58;;
47383;SDS011;33129;52.232;5.192;2022-07-23T13:50:37;4.05;;;1.58;;
47383;SDS011;33129;52.232;5.192;2022-07-23T13:53:05;4.95;;;2.00;;
47383;SDS011;33129;52.232;5.192;2022-07-23T13:55:34;3.25;;;1.70;;
47383;SDS011;33129;52.232;5.192;2022-07-23T13:58:01;4.38;;;1.90;;
47383;SDS011;33129;52.232;5.192;2022-07-23T14:00:28;3.75;;;1.90;;
47383;SDS011;33129;52.232;5.192;2022-07-23T14:02:56;4.45;;;2.03;;
47383;SDS011;33129;52.232;5.192;2022-07-23T14:05:22;3.83;;;2.10;;
47383;SDS011;33129;52.232;5.192;2022-07-23T14:07:48;3.70;;;2.00;;
47383;SDS011;33129;52.232;5.192;2022-07-23T14:10:15;3.83;;;2.00;;
47383;SDS011;33129;52.232;5.192;2022-07-23T14:12:42;4.20;;;1.90;;
47383;SDS011;33129;52.232;5.192;2022-07-23T14:15:09;3.80;;;1.73;;
47383;SDS011;33129;52.232;5.192;2022-07-23T14:17:36;4.57;;;1.65;;
47383;SDS011;33129;52.232;5.192;2022-07-23T14:20:04;5.55;;;1.98;;
47383;SDS011;33129;52.232;5.192;2022-07-23T14:22:31;4.20;;;1.80;;
47383;SDS011;33129;52.232;5.192;2022-07-23T14:24:57;4.38;;;1.67;;
47383;SDS011;33129;52.232;5.192;2022-07-23T14:27:23;4.38;;;2.10;;
47383;SDS011;33129;52.232;5.192;2022-07-23T14:29:50;4.68;;;2.33;;
47383;SDS011;33129;52.232;5.192;2022-07-23T14:32:16;3.15;;;1.80;;
47383;SDS011;33129;52.232;5.192;2022-07-23T14:34:43;3.63;;;1.80;;
47383;SDS011;33129;52.232;5.192;2022-07-23T14:37:09;4.90;;;1.80;;
47383;SDS011;33129;52.232;5.192;2022-07-23T14:39:39;3.58;;;1.88;;
47383;SDS011;33129;52.232;5.192;2022-07-23T14:42:06;3.95;;;1.80;;
47383;SDS011;33129;52.232;5.192;2022-07-23T14:44:32;4.10;;;1.80;;
47383;SDS011;33129;52.232;5.192;2022-07-23T14:46:59;3.83;;;1.85;;
47383;SDS011;33129;52.232;5.192;2022-07-23T14:49:26;4.13;;;1.77;;
47383;SDS011;33129;52.232;5.192;2022-07-23T14:51:52;4.43;;;1.85;;
47383;SDS011;33129;52.232;5.192;2022-07-23T14:54:18;4.72;;;1.80;;
47383;SDS011;33129;52.232;5.192;2022-07-23T14:56:45;4.57;;;1.88;;
47383;SDS011;33129;52.232;5.192;2022-07-23T14:59:11;4.32;;;1.70;;
47383;SDS011;33129;52.232;5.192;2022-07-23T15:01:37;4.10;;;1.90;;
47383;SDS011;33129;52.232;5.192;2022-07-23T15:04:03;3.80;;;1.60;;
47383;SDS011;33129;52.232;5.192;2022-07-23T15:06:29;3.67;;;1.80;;
47383;SDS011;33129;52.232;5.192;2022-07-23T15:08:55;3.65;;;1.80;;
47383;SDS011;33129;52.232;5.192;2022-07-23T15:11:21;5.50;;;2.20;;
47383;SDS011;33129;52.232;5.192;2022-07-23T15:13:47;5.38;;;2.00;;
47383;SDS011;33129;52.232;5.192;2022-07-23T15:16:13;4.35;;;1.73;;
47383;SDS011;33129;52.232;5.192;2022-07-23T15:18:39;4.30;;;2.25;;
47383;SDS011;33129;52.232;5.192;2022-07-23T15:21:05;6.38;;;2.38;;
47383;SDS011;33129;52.232;5.192;2022-07-23T15:23:31;5.32;;;2.03;;
47383;SDS011;33129;52.232;5.192;2022-07-23T15:25:57;5.13;;;2.35;;
47383;SDS011;33129;52.232;5.192;2022-07-23T15:28:23;4.82;;;1.98;;
47383;SDS011;33129;52.232;5.192;2022-07-23T15:30:50;4.55;;;2.22;;
47383;SDS011;33129;52.232;5.192;2022-07-23T15:33:17;6.57;;;2.58;;
47383;SDS011;33129;52.232;5.192;2022-07-23T15:35:42;6.32;;;2.47;;
47383;SDS011;33129;52.232;5.192;2022-07-23T15:38:08;4.40;;;1.92;;
47383;SDS011;33129;52.232;5.192;2022-07-23T15:40:34;4.25;;;2.25;;